sensor_id;sensor_type;location;lat;lon;timestamp;P1;durP1;ratioP1;P2;durP2;ratioP2
28174;SDS011;59417;44.788;10.334;2022-07-29T00:01:47;5.45;;;4.32;;
28174;SDS011;59417;44.788;10.334;2022-07-29T00:04:13;6.70;;;5.32;;
28174;SDS011;59417;44.788;10.334;2022-07-29T00:06:39;5.63;;;4.70;;
28174;SDS011;59417;44.788;10.334;2022-07-29T00:09:05;7.47;;;5.03;;
28174;SDS011;59417;44.788;10.334;2022-07-29T00:11:31;4.30;;;3.85;;
28174;SDS011;59417;44.788;10.334;2022-07-29T00:13:57;5.07;;;3.97;;
28174;SDS011;59417;44.788;10.334;2022-07-29T00:16:23;7.47;;;4.13;;
28174;SDS011;59417;44.788;10.334;2022-07-29T00:18:52;4.78;;;3.42;;
28174;SDS011;59417;44.788;10.334;2022-07-29T00:21:17;5.10;;;3.78;;
28174;SDS011;59417;44.788;10.334;2022-07-29T00:23:43;3.75;;;3.30;;
28174;SDS011;59417;44.788;10.334;2022-07-29T00:26:08;5.35;;;3.95;;
28174;SDS011;59417;44.788;10.334;2022-07-29T00:28:34;5.38;;;3.47;;
28174;SDS011;59417;44.788;10.334;2022-07-29T00:31:00;4.68;;;3.53;;
28174;SDS011;59417;44.788;10.334;2022-07-29T00:33:26;5.00;;;4.05;;
28174;SDS011;59417;44.788;10.334;2022-07-29T00:35:51;4.60;;;4.00;;
28174;SDS011;59417;44.788;10.334;2022-07-29T00:38:17;5.35;;;4.32;;
28174;SDS011;59417;44.788;10.334;2022-07-29T00:40:45;5.95;;;3.85;;
28174;SDS011;59417;44.788;10.334;2022-07-29T00:43:11;5.15;;;3.97;;
28174;SDS011;59417;44.788;10.334;2022-07-29T00:45:39;8.07;;;4.60;;
28174;SDS011;59417;44.788;10.334;2022-07-29T00:48:05;6.32;;;4.18;;
28174;SDS011;59417;44.788;10.334;2022-07-29T00:50:31;4.78;;;4.03;;
28174;SDS011;59417;44.788;10.334;2022-07-29T00:52:58;5.35;;;4.05;;
28174;SDS011;59417;44.788;10.334;2022-07-29T00:55:24;4.20;;;3.75;;
28174;SDS011;59417;44.788;10.334;2022-07-29T00:57:50;5.75;;;3.72;;
28174;SDS011;59417;44.788;10.334;2022-07-29T01:00:23;3.67;;;3.38;;
28174;SDS011;59417;44.788;10.334;2022-07-29T01:02:51;5.70;;;3.78;;
28174;SDS011;59417;44.788;10.334;2022-07-29T01:05:18;4.22;;;3.30;;
28174;SDS011;59417;44.788;10.334;2022-07-29T01:07:48;4.05;;;3.33;;
28174;SDS011;59417;44.788;10.334;2022-07-29T01:10:16;4.10;;;3.70;;
28174;SDS011;59417;44.788;10.334;2022-07-29T01:12:43;4.80;;;3.28;;
28174;SDS011;59417;44.788;10.334;2022-07-29T01:15:11;13.13;;;3.85;;
28174;SDS011;59417;44.788;10.334;2022-07-29T01:20:28;5.38;;;4.03;;
28174;SDS011;59417;44.788;10.334;2022-07-29T01:28:55;4.80;;;3.80;;
28174;SDS011;59417;44.788;10.334;2022-07-29T01:34:20;6.82;;;4.43;;
28174;SDS011;59417;44.788;10.334;2022-07-29T01:36:51;10.15;;;5.57;;
28174;SDS011;59417;44.788;10.334;2022-07-29T01:39:28;7.63;;;5.38;;
28174;SDS011;59417;44.788;10.334;2022-07-29T01:42:42;6.32;;;5.50;;
28174;SDS011;59417;44.788;10.334;2022-07-29T01:48:18;7.88;;;5.82;;
28174;SDS011;59417;44.788;10.334;2022-07-29T01:53:47;13.13;;;6.85;;
28174;SDS011;59417;44.788;10.334;2022-07-29T01:56:20;9.25;;;6.15;;
28174;SDS011;59417;44.788;10.334;2022-07-29T01:58:48;6.93;;;6.30;;
28174;SDS011;59417;44.788;10.334;2022-07-29T02:01:17;7.95;;;6.60;;
28174;SDS011;59417;44.788;10.334;2022-07-29T02:03:44;9.88;;;6.97;;
28174;SDS011;59417;44.788;10.334;2022-07-29T02:06:11;9.10;;;6.63;;
28174;SDS011;59417;44.788;10.334;2022-07-29T02:08:39;10.20;;;6.22;;
28174;SDS011;59417;44.788;10.334;2022-07-29T02:11:05;6.72;;;5.93;;
28174;SDS011;59417;44.788;10.334;2022-07-29T02:13:34;8.13;;;5.57;;
28174;SDS011;59417;44.788;10.334;2022-07-29T02:16:02;6.57;;;4.93;;
28174;SDS011;59417;44.788;10.334;2022-07-29T02:18:30;9.68;;;5.70;;
28174;SDS011;59417;44.788;10.334;2022-07-29T02:20:58;7.50;;;5.30;;
28174;SDS011;59417;44.788;10.334;2022-07-29T02:23:25;11.00;;;6.20;;
28174;SDS011;59417;44.788;10.334;2022-07-29T02:25:52;8.43;;;5.47;;
28174;SDS011;59417;44.788;10.334;2022-07-29T02:28:20;8.88;;;5.75;;
28174;SDS011;59417;44.788;10.334;2022-07-29T02:30:49;7.22;;;5.63;;
28174;SDS011;59417;44.788;10.334;2022-07-29T02:33:16;7.85;;;5.95;;
28174;SDS011;59417;44.788;10.334;2022-07-29T02:35:44;7.90;;;5.90;;
28174;SDS011;59417;44.788;10.334;2022-07-29T02:38:12;6.18;;;5.47;;
28174;SDS011;59417;44.788;10.334;2022-07-29T02:41:00;5.78;;;5.15;;
28174;SDS011;59417;44.788;10.334;2022-07-29T02:43:28;7.80;;;5.20;;
28174;SDS011;59417;44.788;10.334;2022-07-29T02:48:27;4.72;;;4.22;;
28174;SDS011;59417;44.788;10.334;2022-07-29T02:51:14;8.55;;;4.45;;
28174;SDS011;59417;44.788;10.334;2022-07-29T02:53:45;5.70;;;4.75;;
28174;SDS011;59417;44.788;10.334;2022-07-29T02:56:16;6.35;;;4.95;;
28174;SDS011;59417;44.788;10.334;2022-07-29T02:58:49;9.55;;;4.82;;
28174;SDS011;59417;44.788;10.334;2022-07-29T03:01:21;4.40;;;3.90;;
28174;SDS011;59417;44.788;10.334;2022-07-29T03:03:49;8.02;;;4.13;;
28174;SDS011;59417;44.788;10.334;2022-07-29T03:06:18;6.20;;;4.47;;
28174;SDS011;59417;44.788;10.334;2022-07-29T03:08:46;5.72;;;4.30;;
28174;SDS011;59417;44.788;10.334;2022-07-29T03:11:12;4.57;;;4.00;;
28174;SDS011;59417;44.788;10.334;2022-07-29T03:13:39;6.28;;;4.65;;
28174;SDS011;59417;44.788;10.334;2022-07-29T03:16:05;10.35;;;4.65;;
28174;SDS011;59417;44.788;10.334;2022-07-29T03:18:32;5.57;;;4.47;;
28174;SDS011;59417;44.788;10.334;2022-07-29T03:20:58;6.43;;;4.35;;
28174;SDS011;59417;44.788;10.334;2022-07-29T03:23:24;6.00;;;4.20;;
28174;SDS011;59417;44.788;10.334;2022-07-29T03:25:53;7.97;;;4.18;;
28174;SDS011;59417;44.788;10.334;2022-07-29T03:28:19;8.68;;;5.78;;
28174;SDS011;59417;44.788;10.334;2022-07-29T03:30:48;10.48;;;6.75;;
28174;SDS011;59417;44.788;10.334;2022-07-29T03:33:14;15.15;;;6.18;;
28174;SDS011;59417;44.788;10.334;2022-07-29T03:35:40;11.65;;;6.30;;
28174;SDS011;59417;44.788;10.334;2022-07-29T03:38:06;7.82;;;5.75;;
28174;SDS011;59417;44.788;10.334;2022-07-29T03:40:38;11.70;;;5.28;;
28174;SDS011;59417;44.788;10.334;2022-07-29T03:43:08;5.88;;;4.82;;
28174;SDS011;59417;44.788;10.334;2022-07-29T03:45:35;6.85;;;5.38;;
28174;SDS011;59417;44.788;10.334;2022-07-29T03:48:05;9.98;;;6.28;;
28174;SDS011;59417;44.788;10.334;2022-07-29T03:50:33;10.30;;;7.22;;
28174;SDS011;59417;44.788;10.334;2022-07-29T03:53:00;7.20;;;6.00;;
28174;SDS011;59417;44.788;10.334;2022-07-29T03:55:28;7.28;;;6.32;;
28174;SDS011;59417;44.788;10.334;2022-07-29T03:57:57;9.50;;;7.07;;
28174;SDS011;59417;44.788;10.334;2022-07-29T04:00:25;10.10;;;7.13;;
28174;SDS011;59417;44.788;10.334;2022-07-29T04:02:52;11.27;;;6.53;;
28174;SDS011;59417;44.788;10.334;2022-07-29T04:05:18;10.90;;;6.78;;
28174;SDS011;59417;44.788;10.334;2022-07-29T04:07:44;8.27;;;7.28;;
28174;SDS011;59417;44.788;10.334;2022-07-29T04:10:11;11.50;;;8.65;;
28174;SDS011;59417;44.788;10.334;2022-07-29T04:12:36;11.07;;;8.35;;
28174;SDS011;59417;44.788;10.334;2022-07-29T04:15:03;9.25;;;8.05;;
28174;SDS011;59417;44.788;10.334;2022-07-29T04:17:29;8.15;;;7.35;;
28174;SDS011;59417;44.788;10.334;2022-07-29T04:19:55;8.68;;;7.82;;
28174;SDS011;59417;44.788;10.334;2022-07-29T04:22:21;11.55;;;8.85;;
28174;SDS011;59417;44.788;10.334;2022-07-29T04:24:46;11.27;;;7.35;;
28174;SDS011;59417;44.788;10.334;2022-07-29T04:27:12;9.57;;;7.32;;
28174;SDS011;59417;44.788;10.334;2022-07-29T04:29:38;8.23;;;7.35;;
28174;SDS011;59417;44.788;10.334;2022-07-29T04:32:03;9.65;;;6.85;;
28174;SDS011;59417;44.788;10.334;2022-07-29T04:34:29;9.32;;;7.38;;
28174;SDS011;59417;44.788;10.334;2022-07-29T04:36:55;9.68;;;7.13;;
28174;SDS011;59417;44.788;10.334;2022-07-29T04:39:21;6.72;;;6.03;;
28174;SDS011;59417;44.788;10.334;2022-07-29T04:41:46;11.38;;;6.88;;
28174;SDS011;59417;44.788;10.334;2022-07-29T04:44:12;9.95;;;8.05;;
28174;SDS011;59417;44.788;10.334;2022-07-29T04:46:38;10.40;;;8.10;;
28174;SDS011;59417;44.788;10.334;2022-07-29T04:49:03;13.40;;;9.63;;
28174;SDS011;59417;44.788;10.334;2022-07-29T04:51:30;13.10;;;10.75;;
28174;SDS011;59417;44.788;10.334;2022-07-29T04:53:55;15.30;;;11.27;;
28174;SDS011;59417;44.788;10.334;2022-07-29T04:56:21;19.60;;;13.50;;
28174;SDS011;59417;44.788;10.334;2022-07-29T04:58:47;18.75;;;14.88;;
28174;SDS011;59417;44.788;10.334;2022-07-29T05:01:13;19.25;;;14.18;;
28174;SDS011;59417;44.788;10.334;2022-07-29T05:03:39;15.88;;;13.35;;
28174;SDS011;59417;44.788;10.334;2022-07-29T05:06:05;22.13;;;13.77;;
28174;SDS011;59417;44.788;10.334;2022-07-29T05:08:31;20.98;;;15.05;;
28174;SDS011;59417;44.788;10.334;2022-07-29T05:10:57;20.23;;;14.40;;
28174;SDS011;59417;44.788;10.334;2022-07-29T05:13:22;20.65;;;14.90;;
28174;SDS011;59417;44.788;10.334;2022-07-29T05:15:48;22.08;;;14.98;;
28174;SDS011;59417;44.788;10.334;2022-07-29T05:18:14;22.55;;;16.65;;
28174;SDS011;59417;44.788;10.334;2022-07-29T05:20:40;20.73;;;16.23;;
28174;SDS011;59417;44.788;10.334;2022-07-29T05:23:06;20.48;;;16.63;;
28174;SDS011;59417;44.788;10.334;2022-07-29T05:25:32;18.23;;;15.45;;
28174;SDS011;59417;44.788;10.334;2022-07-29T05:27:57;23.33;;;17.00;;
28174;SDS011;59417;44.788;10.334;2022-07-29T05:30:23;22.88;;;15.82;;
28174;SDS011;59417;44.788;10.334;2022-07-29T05:32:48;25.80;;;18.15;;
28174;SDS011;59417;44.788;10.334;2022-07-29T05:35:14;24.85;;;18.65;;
28174;SDS011;59417;44.788;10.334;2022-07-29T05:37:40;25.25;;;17.83;;
28174;SDS011;59417;44.788;10.334;2022-07-29T05:40:06;26.88;;;18.77;;
28174;SDS011;59417;44.788;10.334;2022-07-29T05:42:33;24.85;;;16.88;;
28174;SDS011;59417;44.788;10.334;2022-07-29T05:44:59;24.42;;;16.45;;
28174;SDS011;59417;44.788;10.334;2022-07-29T05:47:25;18.52;;;15.13;;
28174;SDS011;59417;44.788;10.334;2022-07-29T05:49:51;16.70;;;13.02;;
28174;SDS011;59417;44.788;10.334;2022-07-29T05:52:17;13.68;;;12.20;;
28174;SDS011;59417;44.788;10.334;2022-07-29T05:54:42;17.67;;;12.65;;
28174;SDS011;59417;44.788;10.334;2022-07-29T05:57:14;18.45;;;12.45;;
28174;SDS011;59417;44.788;10.334;2022-07-29T05:59:40;13.43;;;9.30;;
28174;SDS011;59417;44.788;10.334;2022-07-29T06:02:06;13.48;;;10.48;;
28174;SDS011;59417;44.788;10.334;2022-07-29T06:04:32;14.95;;;11.05;;
28174;SDS011;59417;44.788;10.334;2022-07-29T06:07:01;14.98;;;11.18;;
28174;SDS011;59417;44.788;10.334;2022-07-29T06:09:26;19.80;;;12.25;;
28174;SDS011;59417;44.788;10.334;2022-07-29T06:11:52;15.18;;;13.57;;
28174;SDS011;59417;44.788;10.334;2022-07-29T06:14:18;14.43;;;11.00;;
28174;SDS011;59417;44.788;10.334;2022-07-29T06:16:44;22.92;;;12.93;;
28174;SDS011;59417;44.788;10.334;2022-07-29T06:19:10;14.48;;;11.05;;
28174;SDS011;59417;44.788;10.334;2022-07-29T06:21:35;17.20;;;11.50;;
28174;SDS011;59417;44.788;10.334;2022-07-29T06:24:01;16.13;;;10.57;;
28174;SDS011;59417;44.788;10.334;2022-07-29T06:26:30;22.27;;;14.02;;
28174;SDS011;59417;44.788;10.334;2022-07-29T06:31:22;24.60;;;19.23;;
28174;SDS011;59417;44.788;10.334;2022-07-29T06:33:50;23.27;;;18.40;;
28174;SDS011;59417;44.788;10.334;2022-07-29T06:36:16;24.30;;;18.42;;
28174;SDS011;59417;44.788;10.334;2022-07-29T06:38:41;19.92;;;17.30;;
28174;SDS011;59417;44.788;10.334;2022-07-29T06:41:07;21.35;;;16.98;;
28174;SDS011;59417;44.788;10.334;2022-07-29T06:43:38;29.58;;;21.38;;
28174;SDS011;59417;44.788;10.334;2022-07-29T06:46:10;26.77;;;20.63;;
28174;SDS011;59417;44.788;10.334;2022-07-29T06:48:37;27.48;;;21.55;;
28174;SDS011;59417;44.788;10.334;2022-07-29T06:51:09;31.85;;;23.38;;
28174;SDS011;59417;44.788;10.334;2022-07-29T06:53:41;25.45;;;20.02;;
28174;SDS011;59417;44.788;10.334;2022-07-29T06:56:07;25.13;;;21.45;;
28174;SDS011;59417;44.788;10.334;2022-07-29T06:58:34;26.60;;;21.40;;
28174;SDS011;59417;44.788;10.334;2022-07-29T07:01:01;26.70;;;20.40;;
28174;SDS011;59417;44.788;10.334;2022-07-29T07:03:28;27.88;;;21.30;;
28174;SDS011;59417;44.788;10.334;2022-07-29T07:05:55;23.67;;;19.90;;
28174;SDS011;59417;44.788;10.334;2022-07-29T07:08:21;21.92;;;19.05;;
28174;SDS011;59417;44.788;10.334;2022-07-29T07:10:47;21.77;;;17.25;;
28174;SDS011;59417;44.788;10.334;2022-07-29T07:13:13;27.42;;;18.42;;
28174;SDS011;59417;44.788;10.334;2022-07-29T07:15:39;22.63;;;17.88;;
28174;SDS011;59417;44.788;10.334;2022-07-29T07:18:06;29.02;;;20.80;;
28174;SDS011;59417;44.788;10.334;2022-07-29T07:20:35;24.10;;;19.92;;
28174;SDS011;59417;44.788;10.334;2022-07-29T07:23:01;23.05;;;18.92;;
28174;SDS011;59417;44.788;10.334;2022-07-29T07:25:27;27.17;;;19.75;;
28174;SDS011;59417;44.788;10.334;2022-07-29T07:27:52;22.25;;;17.60;;
28174;SDS011;59417;44.788;10.334;2022-07-29T07:30:18;20.55;;;17.35;;
28174;SDS011;59417;44.788;10.334;2022-07-29T07:32:44;19.77;;;16.15;;
28174;SDS011;59417;44.788;10.334;2022-07-29T07:35:10;22.55;;;19.33;;
28174;SDS011;59417;44.788;10.334;2022-07-29T07:37:36;20.48;;;16.45;;
28174;SDS011;59417;44.788;10.334;2022-07-29T07:40:05;23.52;;;16.55;;
28174;SDS011;59417;44.788;10.334;2022-07-29T07:42:32;23.65;;;17.85;;
28174;SDS011;59417;44.788;10.334;2022-07-29T07:44:58;21.45;;;18.58;;
28174;SDS011;59417;44.788;10.334;2022-07-29T07:47:23;21.55;;;17.52;;
28174;SDS011;59417;44.788;10.334;2022-07-29T07:49:50;24.23;;;14.95;;
28174;SDS011;59417;44.788;10.334;2022-07-29T07:52:16;19.40;;;15.82;;
28174;SDS011;59417;44.788;10.334;2022-07-29T07:54:43;18.38;;;15.75;;
28174;SDS011;59417;44.788;10.334;2022-07-29T07:57:10;20.90;;;16.92;;
28174;SDS011;59417;44.788;10.334;2022-07-29T07:59:36;24.50;;;18.50;;
28174;SDS011;59417;44.788;10.334;2022-07-29T08:02:03;21.45;;;16.83;;
28174;SDS011;59417;44.788;10.334;2022-07-29T08:04:31;19.00;;;15.57;;
28174;SDS011;59417;44.788;10.334;2022-07-29T08:06:58;18.92;;;15.30;;
28174;SDS011;59417;44.788;10.334;2022-07-29T08:09:25;21.73;;;18.15;;
28174;SDS011;59417;44.788;10.334;2022-07-29T08:11:51;23.50;;;17.00;;
28174;SDS011;59417;44.788;10.334;2022-07-29T08:14:18;20.65;;;14.75;;
28174;SDS011;59417;44.788;10.334;2022-07-29T08:16:44;22.30;;;15.27;;
28174;SDS011;59417;44.788;10.334;2022-07-29T08:19:10;19.45;;;13.27;;
28174;SDS011;59417;44.788;10.334;2022-07-29T08:21:36;14.57;;;11.70;;
28174;SDS011;59417;44.788;10.334;2022-07-29T08:24:02;13.82;;;10.10;;
28174;SDS011;59417;44.788;10.334;2022-07-29T08:26:47;18.25;;;12.45;;
28174;SDS011;59417;44.788;10.334;2022-07-29T08:29:12;22.02;;;15.57;;
28174;SDS011;59417;44.788;10.334;2022-07-29T08:31:38;14.35;;;12.13;;
28174;SDS011;59417;44.788;10.334;2022-07-29T08:34:05;15.63;;;13.10;;
28174;SDS011;59417;44.788;10.334;2022-07-29T08:36:31;25.80;;;14.88;;
28174;SDS011;59417;44.788;10.334;2022-07-29T08:38:58;17.20;;;13.70;;
28174;SDS011;59417;44.788;10.334;2022-07-29T08:41:24;17.65;;;12.18;;
28174;SDS011;59417;44.788;10.334;2022-07-29T08:43:51;15.80;;;12.20;;
28174;SDS011;59417;44.788;10.334;2022-07-29T08:46:17;19.98;;;13.38;;
28174;SDS011;59417;44.788;10.334;2022-07-29T08:48:44;19.45;;;13.38;;
28174;SDS011;59417;44.788;10.334;2022-07-29T08:51:12;18.85;;;15.93;;
28174;SDS011;59417;44.788;10.334;2022-07-29T08:53:41;16.55;;;13.07;;
28174;SDS011;59417;44.788;10.334;2022-07-29T08:56:11;16.08;;;12.52;;
28174;SDS011;59417;44.788;10.334;2022-07-29T08:58:38;14.88;;;10.57;;
28174;SDS011;59417;44.788;10.334;2022-07-29T09:01:05;15.55;;;13.48;;
28174;SDS011;59417;44.788;10.334;2022-07-29T09:03:32;18.73;;;14.82;;
28174;SDS011;59417;44.788;10.334;2022-07-29T09:06:01;18.25;;;15.23;;
28174;SDS011;59417;44.788;10.334;2022-07-29T09:08:28;11.88;;;10.52;;
28174;SDS011;59417;44.788;10.334;2022-07-29T09:10:56;16.85;;;14.18;;
28174;SDS011;59417;44.788;10.334;2022-07-29T09:13:22;16.83;;;13.10;;
28174;SDS011;59417;44.788;10.334;2022-07-29T09:15:48;17.20;;;13.10;;
28174;SDS011;59417;44.788;10.334;2022-07-29T09:21:13;17.00;;;14.38;;
28174;SDS011;59417;44.788;10.334;2022-07-29T09:24:08;20.70;;;13.38;;
28174;SDS011;59417;44.788;10.334;2022-07-29T09:26:36;20.48;;;11.68;;
28174;SDS011;59417;44.788;10.334;2022-07-29T09:29:23;12.68;;;9.70;;
28174;SDS011;59417;44.788;10.334;2022-07-29T09:31:50;15.00;;;12.10;;
28174;SDS011;59417;44.788;10.334;2022-07-29T09:34:22;15.40;;;10.65;;
28174;SDS011;59417;44.788;10.334;2022-07-29T09:36:49;13.95;;;11.07;;
28174;SDS011;59417;44.788;10.334;2022-07-29T09:39:26;11.77;;;10.48;;
28174;SDS011;59417;44.788;10.334;2022-07-29T09:41:55;17.63;;;14.25;;
28174;SDS011;59417;44.788;10.334;2022-07-29T09:44:23;16.00;;;12.05;;
28174;SDS011;59417;44.788;10.334;2022-07-29T09:49:23;17.55;;;14.88;;
28174;SDS011;59417;44.788;10.334;2022-07-29T09:51:58;17.77;;;13.27;;
28174;SDS011;59417;44.788;10.334;2022-07-29T09:54:34;12.65;;;9.77;;
28174;SDS011;59417;44.788;10.334;2022-07-29T09:57:07;17.67;;;13.45;;
28174;SDS011;59417;44.788;10.334;2022-07-29T09:59:37;16.75;;;11.75;;
28174;SDS011;59417;44.788;10.334;2022-07-29T10:02:13;14.15;;;10.57;;
28174;SDS011;59417;44.788;10.334;2022-07-29T10:04:40;14.13;;;9.30;;
28174;SDS011;59417;44.788;10.334;2022-07-29T10:07:06;12.65;;;10.98;;
28174;SDS011;59417;44.788;10.334;2022-07-29T10:09:32;13.93;;;10.15;;
28174;SDS011;59417;44.788;10.334;2022-07-29T10:12:06;10.35;;;7.03;;
28174;SDS011;59417;44.788;10.334;2022-07-29T10:14:35;6.63;;;5.85;;
28174;SDS011;59417;44.788;10.334;2022-07-29T10:17:01;7.20;;;5.60;;
28174;SDS011;59417;44.788;10.334;2022-07-29T10:19:28;10.13;;;6.57;;
28174;SDS011;59417;44.788;10.334;2022-07-29T10:21:59;7.63;;;6.80;;
28174;SDS011;59417;44.788;10.334;2022-07-29T10:24:29;9.27;;;7.30;;
28174;SDS011;59417;44.788;10.334;2022-07-29T10:26:56;9.65;;;6.43;;
28174;SDS011;59417;44.788;10.334;2022-07-29T10:29:23;9.55;;;6.07;;
28174;SDS011;59417;44.788;10.334;2022-07-29T10:32:37;12.40;;;6.65;;
28174;SDS011;59417;44.788;10.334;2022-07-29T10:43:46;9.57;;;6.97;;
28174;SDS011;59417;44.788;10.334;2022-07-29T10:46:12;7.18;;;5.75;;
28174;SDS011;59417;44.788;10.334;2022-07-29T10:59:41;6.97;;;5.43;;
28174;SDS011;59417;44.788;10.334;2022-07-29T11:03:09;8.27;;;6.22;;
28174;SDS011;59417;44.788;10.334;2022-07-29T11:05:07;6.32;;;5.22;;
28174;SDS011;59417;44.788;10.334;2022-07-29T11:07:34;11.27;;;4.80;;
28174;SDS011;59417;44.788;10.334;2022-07-29T11:15:09;7.60;;;5.22;;
28174;SDS011;59417;44.788;10.334;2022-07-29T11:23:00;6.05;;;5.28;;
28174;SDS011;59417;44.788;10.334;2022-07-29T11:25:42;8.07;;;5.97;;
28174;SDS011;59417;44.788;10.334;2022-07-29T11:28:08;5.60;;;4.63;;
28174;SDS011;59417;44.788;10.334;2022-07-29T11:30:51;7.55;;;5.63;;
28174;SDS011;59417;44.788;10.334;2022-07-29T11:33:31;8.25;;;5.38;;
28174;SDS011;59417;44.788;10.334;2022-07-29T11:36:11;5.70;;;5.07;;
28174;SDS011;59417;44.788;10.334;2022-07-29T11:38:40;11.48;;;4.88;;
28174;SDS011;59417;44.788;10.334;2022-07-29T11:43:48;9.93;;;5.20;;
28174;SDS011;59417;44.788;10.334;2022-07-29T11:49:24;8.82;;;5.60;;
28174;SDS011;59417;44.788;10.334;2022-07-29T11:51:52;7.97;;;5.10;;
28174;SDS011;59417;44.788;10.334;2022-07-29T11:54:21;8.13;;;4.95;;
28174;SDS011;59417;44.788;10.334;2022-07-29T11:56:50;8.00;;;5.22;;
28174;SDS011;59417;44.788;10.334;2022-07-29T11:59:17;6.75;;;5.30;;
28174;SDS011;59417;44.788;10.334;2022-07-29T12:01:52;5.30;;;4.80;;
28174;SDS011;59417;44.788;10.334;2022-07-29T12:04:21;8.70;;;5.40;;
28174;SDS011;59417;44.788;10.334;2022-07-29T12:06:52;5.75;;;4.60;;
28174;SDS011;59417;44.788;10.334;2022-07-29T12:09:19;8.80;;;5.00;;
28174;SDS011;59417;44.788;10.334;2022-07-29T12:11:46;6.72;;;5.30;;
28174;SDS011;59417;44.788;10.334;2022-07-29T12:14:28;6.32;;;4.80;;
28174;SDS011;59417;44.788;10.334;2022-07-29T12:16:56;5.63;;;4.93;;
28174;SDS011;59417;44.788;10.334;2022-07-29T12:19:22;6.22;;;4.72;;
28174;SDS011;59417;44.788;10.334;2022-07-29T12:21:49;6.78;;;5.68;;
28174;SDS011;59417;44.788;10.334;2022-07-29T12:24:16;6.57;;;5.03;;
28174;SDS011;59417;44.788;10.334;2022-07-29T12:26:50;8.45;;;5.10;;
28174;SDS011;59417;44.788;10.334;2022-07-29T12:29:20;6.30;;;5.20;;
28174;SDS011;59417;44.788;10.334;2022-07-29T12:31:50;8.27;;;5.82;;
28174;SDS011;59417;44.788;10.334;2022-07-29T12:34:19;6.80;;;5.28;;
28174;SDS011;59417;44.788;10.334;2022-07-29T12:36:46;6.38;;;5.18;;
28174;SDS011;59417;44.788;10.334;2022-07-29T12:39:13;5.60;;;5.10;;
28174;SDS011;59417;44.788;10.334;2022-07-29T12:41:41;7.65;;;5.68;;
28174;SDS011;59417;44.788;10.334;2022-07-29T12:44:07;8.32;;;5.25;;
28174;SDS011;59417;44.788;10.334;2022-07-29T12:46:32;11.43;;;5.68;;
28174;SDS011;59417;44.788;10.334;2022-07-29T12:48:58;9.30;;;5.60;;
28174;SDS011;59417;44.788;10.334;2022-07-29T12:51:37;10.18;;;5.75;;
28174;SDS011;59417;44.788;10.334;2022-07-29T12:54:08;5.70;;;5.15;;
28174;SDS011;59417;44.788;10.334;2022-07-29T12:56:36;6.95;;;5.05;;
28174;SDS011;59417;44.788;10.334;2022-07-29T12:59:12;7.28;;;5.18;;
28174;SDS011;59417;44.788;10.334;2022-07-29T13:01:39;7.50;;;5.32;;
28174;SDS011;59417;44.788;10.334;2022-07-29T13:04:04;7.10;;;5.25;;
28174;SDS011;59417;44.788;10.334;2022-07-29T13:06:31;6.88;;;5.57;;
28174;SDS011;59417;44.788;10.334;2022-07-29T13:09:35;9.90;;;5.18;;
28174;SDS011;59417;44.788;10.334;2022-07-29T13:12:05;9.18;;;5.13;;
28174;SDS011;59417;44.788;10.334;2022-07-29T13:14:34;6.15;;;5.00;;
28174;SDS011;59417;44.788;10.334;2022-07-29T13:17:05;6.50;;;4.80;;
28174;SDS011;59417;44.788;10.334;2022-07-29T13:19:36;7.80;;;4.80;;
28174;SDS011;59417;44.788;10.334;2022-07-29T13:22:05;7.78;;;5.43;;
28174;SDS011;59417;44.788;10.334;2022-07-29T13:24:31;7.57;;;5.20;;
28174;SDS011;59417;44.788;10.334;2022-07-29T13:26:56;7.68;;;5.63;;
28174;SDS011;59417;44.788;10.334;2022-07-29T13:29:22;5.43;;;4.88;;
28174;SDS011;59417;44.788;10.334;2022-07-29T13:31:48;10.80;;;5.68;;
28174;SDS011;59417;44.788;10.334;2022-07-29T13:34:14;8.13;;;5.95;;
28174;SDS011;59417;44.788;10.334;2022-07-29T13:36:39;7.22;;;6.05;;
28174;SDS011;59417;44.788;10.334;2022-07-29T13:39:05;6.35;;;5.50;;
28174;SDS011;59417;44.788;10.334;2022-07-29T13:41:30;8.38;;;6.05;;
28174;SDS011;59417;44.788;10.334;2022-07-29T13:43:56;13.55;;;7.38;;
28174;SDS011;59417;44.788;10.334;2022-07-29T13:46:22;12.35;;;7.90;;
28174;SDS011;59417;44.788;10.334;2022-07-29T13:48:47;15.82;;;8.63;;
28174;SDS011;59417;44.788;10.334;2022-07-29T13:51:16;18.05;;;10.27;;
28174;SDS011;59417;44.788;10.334;2022-07-29T13:53:59;17.85;;;10.43;;
28174;SDS011;59417;44.788;10.334;2022-07-29T13:57:10;14.65;;;11.02;;
28174;SDS011;59417;44.788;10.334;2022-07-29T13:59:40;16.73;;;10.90;;
28174;SDS011;59417;44.788;10.334;2022-07-29T14:09:32;15.82;;;12.27;;
28174;SDS011;59417;44.788;10.334;2022-07-29T14:13:06;11.82;;;8.27;;
28174;SDS011;59417;44.788;10.334;2022-07-29T14:16:15;7.70;;;6.82;;
28174;SDS011;59417;44.788;10.334;2022-07-29T14:18:54;11.25;;;7.32;;
28174;SDS011;59417;44.788;10.334;2022-07-29T14:21:57;11.48;;;7.55;;
28174;SDS011;59417;44.788;10.334;2022-07-29T14:24:58;12.43;;;7.95;;
28174;SDS011;59417;44.788;10.334;2022-07-29T14:27:48;9.40;;;7.60;;
28174;SDS011;59417;44.788;10.334;2022-07-29T14:33:49;10.32;;;8.50;;
28174;SDS011;59417;44.788;10.334;2022-07-29T14:36:30;12.15;;;8.50;;
28174;SDS011;59417;44.788;10.334;2022-07-29T14:46:47;15.77;;;8.27;;
28174;SDS011;59417;44.788;10.334;2022-07-29T14:49:36;9.55;;;8.50;;
28174;SDS011;59417;44.788;10.334;2022-07-29T14:52:57;11.98;;;10.52;;
28174;SDS011;59417;44.788;10.334;2022-07-29T14:55:52;17.38;;;12.98;;
28174;SDS011;59417;44.788;10.334;2022-07-29T14:58:27;19.17;;;14.80;;
28174;SDS011;59417;44.788;10.334;2022-07-29T15:01:31;21.38;;;15.27;;
28174;SDS011;59417;44.788;10.334;2022-07-29T15:04:01;23.38;;;16.73;;
28174;SDS011;59417;44.788;10.334;2022-07-29T15:06:40;20.60;;;15.38;;
28174;SDS011;59417;44.788;10.334;2022-07-29T15:09:33;16.85;;;13.65;;
28174;SDS011;59417;44.788;10.334;2022-07-29T15:12:43;12.27;;;7.32;;
28174;SDS011;59417;44.788;10.334;2022-07-29T15:15:09;12.20;;;7.43;;
28174;SDS011;59417;44.788;10.334;2022-07-29T15:17:35;11.57;;;6.80;;
28174;SDS011;59417;44.788;10.334;2022-07-29T15:20:06;8.07;;;5.80;;
28174;SDS011;59417;44.788;10.334;2022-07-29T15:22:36;10.45;;;5.80;;
28174;SDS011;59417;44.788;10.334;2022-07-29T15:25:03;8.30;;;5.75;;
28174;SDS011;59417;44.788;10.334;2022-07-29T15:27:29;5.40;;;4.57;;
28174;SDS011;59417;44.788;10.334;2022-07-29T15:29:55;6.28;;;4.95;;
28174;SDS011;59417;44.788;10.334;2022-07-29T15:32:21;6.85;;;4.97;;
28174;SDS011;59417;44.788;10.334;2022-07-29T15:34:46;7.82;;;5.00;;
28174;SDS011;59417;44.788;10.334;2022-07-29T15:37:12;7.10;;;5.25;;
28174;SDS011;59417;44.788;10.334;2022-07-29T15:39:38;9.38;;;5.18;;
28174;SDS011;59417;44.788;10.334;2022-07-29T15:42:03;8.63;;;6.35;;
28174;SDS011;59417;44.788;10.334;2022-07-29T15:44:29;10.40;;;4.95;;
28174;SDS011;59417;44.788;10.334;2022-07-29T15:46:55;7.40;;;5.20;;
28174;SDS011;59417;44.788;10.334;2022-07-29T15:49:34;7.22;;;6.10;;
28174;SDS011;59417;44.788;10.334;2022-07-29T15:52:05;7.22;;;5.38;;
28174;SDS011;59417;44.788;10.334;2022-07-29T15:54:34;9.95;;;6.10;;
28174;SDS011;59417;44.788;10.334;2022-07-29T15:57:01;7.78;;;5.03;;
28174;SDS011;59417;44.788;10.334;2022-07-29T15:59:28;13.80;;;6.00;;
28174;SDS011;59417;44.788;10.334;2022-07-29T16:01:53;8.30;;;5.35;;